sensor_id;sensor_type;location;lat;lon;timestamp;P1;durP1;ratioP1;P2;durP2;ratioP2
64597;SDS011;51004;54.692;9.332;2022-12-18T00:01:20;39.45;;;20.33;;
64597;SDS011;51004;54.692;9.332;2022-12-18T00:03:46;38.53;;;19.00;;
64597;SDS011;51004;54.692;9.332;2022-12-18T00:06:13;36.63;;;20.23;;
64597;SDS011;51004;54.692;9.332;2022-12-18T00:08:39;41.70;;;20.38;;
64597;SDS011;51004;54.692;9.332;2022-12-18T00:11:06;38.13;;;20.88;;
64597;SDS011;51004;54.692;9.332;2022-12-18T00:13:32;40.58;;;20.98;;
64597;SDS011;51004;54.692;9.332;2022-12-18T00:16:05;36.78;;;19.85;;
64597;SDS011;51004;54.692;9.332;2022-12-18T00:18:32;35.92;;;19.88;;
64597;SDS011;51004;54.692;9.332;2022-12-18T00:20:59;34.22;;;19.92;;
64597;SDS011;51004;54.692;9.332;2022-12-18T00:23:25;42.47;;;21.17;;
64597;SDS011;51004;54.692;9.332;2022-12-18T00:25:51;41.50;;;22.55;;
64597;SDS011;51004;54.692;9.332;2022-12-18T00:28:17;39.25;;;21.23;;
64597;SDS011;51004;54.692;9.332;2022-12-18T00:30:43;32.33;;;16.67;;
64597;SDS011;51004;54.692;9.332;2022-12-18T00:33:09;39.13;;;21.55;;
64597;SDS011;51004;54.692;9.332;2022-12-18T00:35:35;40.53;;;21.55;;
64597;SDS011;51004;54.692;9.332;2022-12-18T00:38:01;36.53;;;19.60;;
64597;SDS011;51004;54.692;9.332;2022-12-18T00:40:27;33.65;;;18.48;;
64597;SDS011;51004;54.692;9.332;2022-12-18T00:42:53;33.13;;;18.10;;
64597;SDS011;51004;54.692;9.332;2022-12-18T00:45:23;34.63;;;18.02;;
64597;SDS011;51004;54.692;9.332;2022-12-18T00:47:50;35.92;;;18.58;;
64597;SDS011;51004;54.692;9.332;2022-12-18T00:50:16;35.90;;;19.02;;
64597;SDS011;51004;54.692;9.332;2022-12-18T00:52:42;38.60;;;19.35;;
64597;SDS011;51004;54.692;9.332;2022-12-18T00:55:08;38.78;;;18.90;;
64597;SDS011;51004;54.692;9.332;2022-12-18T00:57:34;36.97;;;19.67;;
64597;SDS011;51004;54.692;9.332;2022-12-18T01:00:00;36.58;;;19.63;;
64597;SDS011;51004;54.692;9.332;2022-12-18T01:02:26;32.38;;;18.00;;
64597;SDS011;51004;54.692;9.332;2022-12-18T01:04:52;34.95;;;19.05;;
64597;SDS011;51004;54.692;9.332;2022-12-18T01:07:18;32.90;;;18.52;;
64597;SDS011;51004;54.692;9.332;2022-12-18T01:09:44;38.28;;;20.65;;
64597;SDS011;51004;54.692;9.332;2022-12-18T01:12:10;33.40;;;18.30;;
64597;SDS011;51004;54.692;9.332;2022-12-18T01:14:36;31.83;;;17.63;;
64597;SDS011;51004;54.692;9.332;2022-12-18T01:17:03;35.45;;;18.50;;
64597;SDS011;51004;54.692;9.332;2022-12-18T01:19:29;32.35;;;18.85;;
64597;SDS011;51004;54.692;9.332;2022-12-18T01:21:55;33.25;;;18.63;;
64597;SDS011;51004;54.692;9.332;2022-12-18T01:24:21;34.75;;;20.38;;
64597;SDS011;51004;54.692;9.332;2022-12-18T01:26:47;34.70;;;18.20;;
64597;SDS011;51004;54.692;9.332;2022-12-18T01:29:13;32.47;;;19.30;;
64597;SDS011;51004;54.692;9.332;2022-12-18T01:31:39;31.92;;;17.80;;
64597;SDS011;51004;54.692;9.332;2022-12-18T01:34:05;32.53;;;17.92;;
64597;SDS011;51004;54.692;9.332;2022-12-18T01:36:32;35.45;;;20.52;;
64597;SDS011;51004;54.692;9.332;2022-12-18T01:38:59;35.58;;;18.40;;
64597;SDS011;51004;54.692;9.332;2022-12-18T01:41:27;29.60;;;17.77;;
64597;SDS011;51004;54.692;9.332;2022-12-18T01:46:57;28.73;;;17.33;;
64597;SDS011;51004;54.692;9.332;2022-12-18T01:49:23;33.80;;;18.00;;
64597;SDS011;51004;54.692;9.332;2022-12-18T01:51:49;32.75;;;17.75;;
64597;SDS011;51004;54.692;9.332;2022-12-18T01:54:15;30.67;;;18.02;;
64597;SDS011;51004;54.692;9.332;2022-12-18T01:56:41;32.28;;;17.08;;
64597;SDS011;51004;54.692;9.332;2022-12-18T01:59:07;30.08;;;17.90;;
64597;SDS011;51004;54.692;9.332;2022-12-18T02:01:35;30.17;;;17.65;;
64597;SDS011;51004;54.692;9.332;2022-12-18T02:09:28;33.05;;;17.70;;
64597;SDS011;51004;54.692;9.332;2022-12-18T02:14:44;30.45;;;18.40;;
64597;SDS011;51004;54.692;9.332;2022-12-18T02:17:56;31.67;;;19.58;;
64597;SDS011;51004;54.692;9.332;2022-12-18T02:25:33;27.25;;;16.67;;
64597;SDS011;51004;54.692;9.332;2022-12-18T02:28:01;31.25;;;18.48;;
64597;SDS011;51004;54.692;9.332;2022-12-18T02:30:29;27.42;;;17.67;;
64597;SDS011;51004;54.692;9.332;2022-12-18T02:32:57;29.90;;;17.33;;
64597;SDS011;51004;54.692;9.332;2022-12-18T02:35:24;29.88;;;18.00;;
64597;SDS011;51004;54.692;9.332;2022-12-18T02:37:51;30.23;;;16.92;;
64597;SDS011;51004;54.692;9.332;2022-12-18T02:40:18;30.48;;;17.95;;
64597;SDS011;51004;54.692;9.332;2022-12-18T02:42:45;25.35;;;16.35;;
64597;SDS011;51004;54.692;9.332;2022-12-18T02:45:11;27.67;;;16.88;;
64597;SDS011;51004;54.692;9.332;2022-12-18T02:47:38;28.60;;;15.10;;
64597;SDS011;51004;54.692;9.332;2022-12-18T02:50:16;28.13;;;15.93;;
64597;SDS011;51004;54.692;9.332;2022-12-18T02:55:33;32.55;;;18.98;;
64597;SDS011;51004;54.692;9.332;2022-12-18T02:58:15;28.75;;;17.98;;
64597;SDS011;51004;54.692;9.332;2022-12-18T03:00:48;28.23;;;17.00;;
64597;SDS011;51004;54.692;9.332;2022-12-18T03:03:51;26.90;;;16.45;;
64597;SDS011;51004;54.692;9.332;2022-12-18T03:06:14;26.30;;;17.77;;
64597;SDS011;51004;54.692;9.332;2022-12-18T03:08:45;29.35;;;17.45;;
64597;SDS011;51004;54.692;9.332;2022-12-18T03:11:12;29.83;;;18.17;;
64597;SDS011;51004;54.692;9.332;2022-12-18T03:13:40;27.83;;;16.83;;
64597;SDS011;51004;54.692;9.332;2022-12-18T03:16:10;28.02;;;16.45;;
64597;SDS011;51004;54.692;9.332;2022-12-18T03:18:38;33.42;;;17.40;;
64597;SDS011;51004;54.692;9.332;2022-12-18T03:21:05;28.35;;;16.35;;
64597;SDS011;51004;54.692;9.332;2022-12-18T03:23:42;31.30;;;17.65;;
64597;SDS011;51004;54.692;9.332;2022-12-18T03:26:10;28.25;;;17.50;;
64597;SDS011;51004;54.692;9.332;2022-12-18T03:28:37;28.88;;;17.15;;
64597;SDS011;51004;54.692;9.332;2022-12-18T03:31:04;26.65;;;17.85;;
64597;SDS011;51004;54.692;9.332;2022-12-18T03:33:39;29.75;;;17.02;;
64597;SDS011;51004;54.692;9.332;2022-12-18T03:36:07;29.98;;;18.02;;
64597;SDS011;51004;54.692;9.332;2022-12-18T03:38:33;33.40;;;18.95;;
64597;SDS011;51004;54.692;9.332;2022-12-18T03:41:02;29.80;;;18.08;;
64597;SDS011;51004;54.692;9.332;2022-12-18T03:43:43;31.02;;;18.88;;
64597;SDS011;51004;54.692;9.332;2022-12-18T03:49:11;33.90;;;18.35;;
64597;SDS011;51004;54.692;9.332;2022-12-18T03:51:39;29.98;;;18.05;;
64597;SDS011;51004;54.692;9.332;2022-12-18T03:54:08;27.55;;;16.15;;
64597;SDS011;51004;54.692;9.332;2022-12-18T03:56:39;29.80;;;18.65;;
64597;SDS011;51004;54.692;9.332;2022-12-18T03:59:07;30.52;;;18.67;;
64597;SDS011;51004;54.692;9.332;2022-12-18T04:01:34;32.90;;;18.13;;
64597;SDS011;51004;54.692;9.332;2022-12-18T04:04:01;32.10;;;19.08;;
64597;SDS011;51004;54.692;9.332;2022-12-18T04:06:27;31.13;;;17.88;;
64597;SDS011;51004;54.692;9.332;2022-12-18T04:08:54;31.33;;;17.67;;
64597;SDS011;51004;54.692;9.332;2022-12-18T04:11:20;28.15;;;17.75;;
64597;SDS011;51004;54.692;9.332;2022-12-18T04:13:46;30.95;;;18.67;;
64597;SDS011;51004;54.692;9.332;2022-12-18T04:16:12;32.25;;;19.38;;
64597;SDS011;51004;54.692;9.332;2022-12-18T04:18:37;30.85;;;19.65;;
64597;SDS011;51004;54.692;9.332;2022-12-18T04:21:03;29.30;;;17.95;;
64597;SDS011;51004;54.692;9.332;2022-12-18T04:23:29;32.53;;;19.75;;
64597;SDS011;51004;54.692;9.332;2022-12-18T04:25:55;28.73;;;19.08;;
64597;SDS011;51004;54.692;9.332;2022-12-18T04:28:21;29.20;;;18.73;;
64597;SDS011;51004;54.692;9.332;2022-12-18T04:30:47;25.98;;;17.08;;
64597;SDS011;51004;54.692;9.332;2022-12-18T04:33:16;28.45;;;17.58;;
64597;SDS011;51004;54.692;9.332;2022-12-18T04:35:42;30.45;;;16.90;;
64597;SDS011;51004;54.692;9.332;2022-12-18T04:38:08;29.85;;;18.92;;
64597;SDS011;51004;54.692;9.332;2022-12-18T04:40:35;25.80;;;17.58;;
64597;SDS011;51004;54.692;9.332;2022-12-18T04:43:01;28.05;;;17.50;;
64597;SDS011;51004;54.692;9.332;2022-12-18T04:45:27;28.95;;;17.15;;
64597;SDS011;51004;54.692;9.332;2022-12-18T04:47:53;30.63;;;19.02;;
64597;SDS011;51004;54.692;9.332;2022-12-18T04:50:19;28.25;;;18.02;;
64597;SDS011;51004;54.692;9.332;2022-12-18T04:52:44;31.42;;;18.80;;
64597;SDS011;51004;54.692;9.332;2022-12-18T04:55:10;25.05;;;17.10;;
64597;SDS011;51004;54.692;9.332;2022-12-18T04:57:36;30.02;;;18.30;;
64597;SDS011;51004;54.692;9.332;2022-12-18T05:00:02;32.38;;;18.83;;
64597;SDS011;51004;54.692;9.332;2022-12-18T05:02:28;34.50;;;18.23;;
64597;SDS011;51004;54.692;9.332;2022-12-18T05:04:54;33.63;;;18.67;;
64597;SDS011;51004;54.692;9.332;2022-12-18T05:07:20;31.98;;;19.08;;
64597;SDS011;51004;54.692;9.332;2022-12-18T05:09:46;31.20;;;19.52;;
64597;SDS011;51004;54.692;9.332;2022-12-18T05:12:12;26.63;;;17.63;;
64597;SDS011;51004;54.692;9.332;2022-12-18T05:14:38;30.83;;;18.75;;
64597;SDS011;51004;54.692;9.332;2022-12-18T05:17:04;31.05;;;19.83;;
64597;SDS011;51004;54.692;9.332;2022-12-18T05:19:30;28.13;;;17.27;;
64597;SDS011;51004;54.692;9.332;2022-12-18T05:21:56;33.80;;;19.23;;
64597;SDS011;51004;54.692;9.332;2022-12-18T05:24:22;27.83;;;18.55;;
64597;SDS011;51004;54.692;9.332;2022-12-18T05:26:48;31.40;;;18.13;;
64597;SDS011;51004;54.692;9.332;2022-12-18T05:29:14;31.65;;;18.38;;
64597;SDS011;51004;54.692;9.332;2022-12-18T05:31:40;32.70;;;19.13;;
64597;SDS011;51004;54.692;9.332;2022-12-18T05:34:06;31.70;;;18.25;;
64597;SDS011;51004;54.692;9.332;2022-12-18T05:36:32;29.75;;;18.73;;
64597;SDS011;51004;54.692;9.332;2022-12-18T05:38:58;31.63;;;18.88;;
64597;SDS011;51004;54.692;9.332;2022-12-18T05:41:25;33.65;;;18.45;;
64597;SDS011;51004;54.692;9.332;2022-12-18T05:43:51;31.92;;;18.70;;
64597;SDS011;51004;54.692;9.332;2022-12-18T05:46:17;27.85;;;17.38;;
64597;SDS011;51004;54.692;9.332;2022-12-18T05:48:43;33.08;;;18.88;;
64597;SDS011;51004;54.692;9.332;2022-12-18T05:51:14;32.28;;;19.67;;
64597;SDS011;51004;54.692;9.332;2022-12-18T05:53:43;31.92;;;18.30;;
64597;SDS011;51004;54.692;9.332;2022-12-18T05:56:19;29.90;;;18.67;;
64597;SDS011;51004;54.692;9.332;2022-12-18T05:58:45;32.15;;;18.48;;
64597;SDS011;51004;54.692;9.332;2022-12-18T06:01:16;29.98;;;17.27;;
64597;SDS011;51004;54.692;9.332;2022-12-18T06:03:42;32.22;;;18.80;;
64597;SDS011;51004;54.692;9.332;2022-12-18T06:08:40;30.65;;;18.33;;
64597;SDS011;51004;54.692;9.332;2022-12-18T06:11:06;27.13;;;17.23;;
64597;SDS011;51004;54.692;9.332;2022-12-18T06:13:32;28.65;;;18.42;;
64597;SDS011;51004;54.692;9.332;2022-12-18T06:15:59;31.48;;;18.10;;
64597;SDS011;51004;54.692;9.332;2022-12-18T06:18:27;32.65;;;19.65;;
64597;SDS011;51004;54.692;9.332;2022-12-18T06:20:56;32.47;;;18.65;;
64597;SDS011;51004;54.692;9.332;2022-12-18T06:23:22;31.67;;;18.67;;
64597;SDS011;51004;54.692;9.332;2022-12-18T06:25:48;33.13;;;18.48;;
64597;SDS011;51004;54.692;9.332;2022-12-18T06:28:14;34.10;;;19.75;;
64597;SDS011;51004;54.692;9.332;2022-12-18T06:30:43;32.92;;;18.55;;
64597;SDS011;51004;54.692;9.332;2022-12-18T06:33:09;32.88;;;18.85;;
64597;SDS011;51004;54.692;9.332;2022-12-18T06:35:35;31.73;;;18.75;;
64597;SDS011;51004;54.692;9.332;2022-12-18T06:38:01;29.23;;;17.75;;
64597;SDS011;51004;54.692;9.332;2022-12-18T06:40:27;28.80;;;17.35;;
64597;SDS011;51004;54.692;9.332;2022-12-18T06:42:53;27.88;;;17.80;;
64597;SDS011;51004;54.692;9.332;2022-12-18T06:45:19;27.67;;;17.35;;
64597;SDS011;51004;54.692;9.332;2022-12-18T06:47:45;27.25;;;15.05;;
64597;SDS011;51004;54.692;9.332;2022-12-18T06:50:11;31.52;;;18.15;;
64597;SDS011;51004;54.692;9.332;2022-12-18T06:52:37;30.98;;;19.85;;
64597;SDS011;51004;54.692;9.332;2022-12-18T06:55:05;29.90;;;17.38;;
64597;SDS011;51004;54.692;9.332;2022-12-18T06:57:31;31.55;;;18.33;;
64597;SDS011;51004;54.692;9.332;2022-12-18T06:59:57;29.38;;;17.90;;
64597;SDS011;51004;54.692;9.332;2022-12-18T07:02:23;27.48;;;18.05;;
64597;SDS011;51004;54.692;9.332;2022-12-18T07:04:49;29.33;;;19.08;;
64597;SDS011;51004;54.692;9.332;2022-12-18T07:07:15;28.80;;;17.95;;
64597;SDS011;51004;54.692;9.332;2022-12-18T07:09:41;34.40;;;18.63;;
64597;SDS011;51004;54.692;9.332;2022-12-18T07:12:07;28.98;;;18.67;;
64597;SDS011;51004;54.692;9.332;2022-12-18T07:14:33;30.90;;;19.45;;
64597;SDS011;51004;54.692;9.332;2022-12-18T07:16:59;32.05;;;19.00;;
64597;SDS011;51004;54.692;9.332;2022-12-18T07:19:25;35.70;;;18.67;;
64597;SDS011;51004;54.692;9.332;2022-12-18T07:21:51;29.20;;;17.92;;
64597;SDS011;51004;54.692;9.332;2022-12-18T07:24:17;29.42;;;19.63;;
64597;SDS011;51004;54.692;9.332;2022-12-18T07:26:45;31.45;;;17.40;;
64597;SDS011;51004;54.692;9.332;2022-12-18T07:29:11;24.67;;;16.40;;
64597;SDS011;51004;54.692;9.332;2022-12-18T07:31:37;29.17;;;18.25;;
64597;SDS011;51004;54.692;9.332;2022-12-18T07:34:03;27.95;;;17.98;;
64597;SDS011;51004;54.692;9.332;2022-12-18T07:36:28;31.75;;;19.27;;
64597;SDS011;51004;54.692;9.332;2022-12-18T07:38:54;35.05;;;18.55;;
64597;SDS011;51004;54.692;9.332;2022-12-18T07:41:21;26.75;;;17.88;;
64597;SDS011;51004;54.692;9.332;2022-12-18T07:43:47;26.20;;;18.92;;
64597;SDS011;51004;54.692;9.332;2022-12-18T07:46:13;29.00;;;18.52;;
64597;SDS011;51004;54.692;9.332;2022-12-18T07:48:41;24.45;;;16.92;;
64597;SDS011;51004;54.692;9.332;2022-12-18T07:51:07;28.02;;;19.08;;
64597;SDS011;51004;54.692;9.332;2022-12-18T07:53:33;34.47;;;19.77;;
64597;SDS011;51004;54.692;9.332;2022-12-18T07:56:01;37.88;;;21.50;;
64597;SDS011;51004;54.692;9.332;2022-12-18T07:58:28;33.53;;;20.13;;
64597;SDS011;51004;54.692;9.332;2022-12-18T08:00:54;31.83;;;19.05;;
64597;SDS011;51004;54.692;9.332;2022-12-18T08:03:27;25.77;;;16.75;;
64597;SDS011;51004;54.692;9.332;2022-12-18T08:06:03;30.15;;;20.30;;
64597;SDS011;51004;54.692;9.332;2022-12-18T08:08:29;25.08;;;17.67;;
64597;SDS011;51004;54.692;9.332;2022-12-18T08:10:55;28.60;;;17.27;;
64597;SDS011;51004;54.692;9.332;2022-12-18T08:13:22;25.08;;;16.52;;
64597;SDS011;51004;54.692;9.332;2022-12-18T08:18:46;26.90;;;16.27;;
64597;SDS011;51004;54.692;9.332;2022-12-18T08:21:13;23.77;;;15.75;;
64597;SDS011;51004;54.692;9.332;2022-12-18T08:23:40;23.67;;;16.00;;
64597;SDS011;51004;54.692;9.332;2022-12-18T08:26:06;26.80;;;15.63;;
64597;SDS011;51004;54.692;9.332;2022-12-18T08:28:32;26.30;;;15.40;;
64597;SDS011;51004;54.692;9.332;2022-12-18T08:30:58;24.92;;;16.27;;
64597;SDS011;51004;54.692;9.332;2022-12-18T08:33:24;26.50;;;15.80;;
64597;SDS011;51004;54.692;9.332;2022-12-18T08:35:51;27.23;;;16.65;;
64597;SDS011;51004;54.692;9.332;2022-12-18T08:38:17;30.25;;;17.73;;
64597;SDS011;51004;54.692;9.332;2022-12-18T08:40:43;22.67;;;16.40;;
64597;SDS011;51004;54.692;9.332;2022-12-18T08:43:09;26.52;;;16.40;;
64597;SDS011;51004;54.692;9.332;2022-12-18T08:45:54;23.38;;;15.43;;
64597;SDS011;51004;54.692;9.332;2022-12-18T08:48:21;23.67;;;15.25;;
64597;SDS011;51004;54.692;9.332;2022-12-18T08:50:53;26.70;;;16.00;;
64597;SDS011;51004;54.692;9.332;2022-12-18T08:53:19;20.38;;;15.38;;
64597;SDS011;51004;54.692;9.332;2022-12-18T08:55:45;21.95;;;14.10;;
64597;SDS011;51004;54.692;9.332;2022-12-18T08:58:11;21.95;;;14.77;;
64597;SDS011;51004;54.692;9.332;2022-12-18T09:00:37;22.27;;;15.98;;
64597;SDS011;51004;54.692;9.332;2022-12-18T09:03:03;22.73;;;14.45;;
64597;SDS011;51004;54.692;9.332;2022-12-18T09:05:29;22.65;;;14.60;;
64597;SDS011;51004;54.692;9.332;2022-12-18T09:07:55;20.70;;;13.75;;
64597;SDS011;51004;54.692;9.332;2022-12-18T09:10:21;19.52;;;14.30;;
64597;SDS011;51004;54.692;9.332;2022-12-18T09:12:47;20.50;;;15.25;;
64597;SDS011;51004;54.692;9.332;2022-12-18T09:15:13;22.60;;;14.43;;
64597;SDS011;51004;54.692;9.332;2022-12-18T09:17:39;19.20;;;13.77;;
64597;SDS011;51004;54.692;9.332;2022-12-18T09:20:05;22.23;;;12.93;;
64597;SDS011;51004;54.692;9.332;2022-12-18T09:22:31;20.13;;;13.68;;
64597;SDS011;51004;54.692;9.332;2022-12-18T09:24:57;18.42;;;12.25;;
64597;SDS011;51004;54.692;9.332;2022-12-18T09:27:23;19.05;;;12.32;;
64597;SDS011;51004;54.692;9.332;2022-12-18T09:29:49;17.77;;;12.48;;
64597;SDS011;51004;54.692;9.332;2022-12-18T09:32:15;18.48;;;12.23;;
64597;SDS011;51004;54.692;9.332;2022-12-18T09:34:41;16.15;;;11.02;;
64597;SDS011;51004;54.692;9.332;2022-12-18T09:37:07;18.70;;;12.15;;
64597;SDS011;51004;54.692;9.332;2022-12-18T09:39:33;17.70;;;12.35;;
64597;SDS011;51004;54.692;9.332;2022-12-18T09:41:59;14.50;;;11.00;;
64597;SDS011;51004;54.692;9.332;2022-12-18T09:44:27;14.98;;;10.80;;
64597;SDS011;51004;54.692;9.332;2022-12-18T09:46:55;18.30;;;11.70;;
64597;SDS011;51004;54.692;9.332;2022-12-18T09:49:25;13.73;;;10.35;;
64597;SDS011;51004;54.692;9.332;2022-12-18T09:52:04;16.15;;;11.30;;
64597;SDS011;51004;54.692;9.332;2022-12-18T09:54:33;18.23;;;10.25;;
64597;SDS011;51004;54.692;9.332;2022-12-18T09:56:59;15.90;;;10.25;;
64597;SDS011;51004;54.692;9.332;2022-12-18T09:59:26;14.73;;;10.05;;
64597;SDS011;51004;54.692;9.332;2022-12-18T10:01:55;13.50;;;10.30;;
64597;SDS011;51004;54.692;9.332;2022-12-18T10:04:21;13.57;;;9.32;;
64597;SDS011;51004;54.692;9.332;2022-12-18T10:06:50;15.30;;;9.57;;
64597;SDS011;51004;54.692;9.332;2022-12-18T10:11:54;15.02;;;10.00;;
64597;SDS011;51004;54.692;9.332;2022-12-18T10:19:43;14.88;;;9.93;;
64597;SDS011;51004;54.692;9.332;2022-12-18T10:22:30;17.65;;;9.95;;
64597;SDS011;51004;54.692;9.332;2022-12-18T10:25:06;15.60;;;9.77;;
64597;SDS011;51004;54.692;9.332;2022-12-18T10:27:38;14.57;;;9.25;;
64597;SDS011;51004;54.692;9.332;2022-12-18T10:30:11;11.43;;;8.20;;
64597;SDS011;51004;54.692;9.332;2022-12-18T10:35:04;13.00;;;8.40;;
64597;SDS011;51004;54.692;9.332;2022-12-18T10:37:30;12.77;;;8.32;;
64597;SDS011;51004;54.692;9.332;2022-12-18T10:40:12;15.68;;;10.25;;
64597;SDS011;51004;54.692;9.332;2022-12-18T10:42:38;13.32;;;8.93;;
64597;SDS011;51004;54.692;9.332;2022-12-18T10:45:13;13.38;;;9.38;;
64597;SDS011;51004;54.692;9.332;2022-12-18T10:47:46;14.20;;;10.27;;
64597;SDS011;51004;54.692;9.332;2022-12-18T10:50:32;14.13;;;9.75;;
64597;SDS011;51004;54.692;9.332;2022-12-18T10:52:59;13.43;;;9.98;;
64597;SDS011;51004;54.692;9.332;2022-12-18T10:55:35;14.90;;;9.68;;
64597;SDS011;51004;54.692;9.332;2022-12-18T11:06:05;13.95;;;8.95;;
64597;SDS011;51004;54.692;9.332;2022-12-18T11:08:31;13.75;;;8.82;;
64597;SDS011;51004;54.692;9.332;2022-12-18T11:10:57;13.65;;;9.15;;
64597;SDS011;51004;54.692;9.332;2022-12-18T11:13:24;16.67;;;10.10;;
64597;SDS011;51004;54.692;9.332;2022-12-18T11:15:51;15.05;;;8.80;;
64597;SDS011;51004;54.692;9.332;2022-12-18T11:18:23;15.70;;;9.35;;
64597;SDS011;51004;54.692;9.332;2022-12-18T11:20:57;12.00;;;8.35;;
64597;SDS011;51004;54.692;9.332;2022-12-18T11:23:25;14.88;;;9.05;;
64597;SDS011;51004;54.692;9.332;2022-12-18T11:25:52;12.18;;;9.38;;
64597;SDS011;51004;54.692;9.332;2022-12-18T11:28:25;16.35;;;9.93;;
64597;SDS011;51004;54.692;9.332;2022-12-18T11:31:12;15.43;;;8.93;;
64597;SDS011;51004;54.692;9.332;2022-12-18T11:33:42;12.05;;;9.02;;
64597;SDS011;51004;54.692;9.332;2022-12-18T11:36:10;13.75;;;9.43;;
64597;SDS011;51004;54.692;9.332;2022-12-18T11:38:40;14.20;;;8.73;;
64597;SDS011;51004;54.692;9.332;2022-12-18T11:41:27;12.70;;;7.70;;
64597;SDS011;51004;54.692;9.332;2022-12-18T11:44:22;11.02;;;7.18;;
64597;SDS011;51004;54.692;9.332;2022-12-18T11:46:51;11.82;;;8.27;;
64597;SDS011;51004;54.692;9.332;2022-12-18T11:49:26;13.68;;;8.68;;
64597;SDS011;51004;54.692;9.332;2022-12-18T11:52:10;13.85;;;8.65;;
64597;SDS011;51004;54.692;9.332;2022-12-18T11:54:40;10.50;;;7.55;;
64597;SDS011;51004;54.692;9.332;2022-12-18T11:57:09;13.95;;;8.15;;
64597;SDS011;51004;54.692;9.332;2022-12-18T11:59:51;10.98;;;8.13;;
64597;SDS011;51004;54.692;9.332;2022-12-18T12:05:13;11.60;;;9.18;;
64597;SDS011;51004;54.692;9.332;2022-12-18T12:15:41;13.55;;;9.35;;
64597;SDS011;51004;54.692;9.332;2022-12-18T12:21:06;13.65;;;9.60;;
64597;SDS011;51004;54.692;9.332;2022-12-18T12:26:08;11.23;;;8.55;;
64597;SDS011;51004;54.692;9.332;2022-12-18T12:28:41;14.00;;;8.50;;
64597;SDS011;51004;54.692;9.332;2022-12-18T12:33:56;15.90;;;8.55;;
64597;SDS011;51004;54.692;9.332;2022-12-18T12:38:56;12.25;;;7.78;;
64597;SDS011;51004;54.692;9.332;2022-12-18T12:41:23;16.17;;;9.65;;
64597;SDS011;51004;54.692;9.332;2022-12-18T12:44:13;11.63;;;8.80;;
64597;SDS011;51004;54.692;9.332;2022-12-18T12:46:40;12.63;;;8.52;;
64597;SDS011;51004;54.692;9.332;2022-12-18T12:49:17;11.63;;;8.65;;
64597;SDS011;51004;54.692;9.332;2022-12-18T12:51:45;13.13;;;9.90;;
64597;SDS011;51004;54.692;9.332;2022-12-18T12:54:17;11.85;;;7.97;;
64597;SDS011;51004;54.692;9.332;2022-12-18T13:02:00;12.98;;;8.82;;
64597;SDS011;51004;54.692;9.332;2022-12-18T13:10:11;13.55;;;8.95;;
64597;SDS011;51004;54.692;9.332;2022-12-18T13:12:28;13.02;;;8.23;;
64597;SDS011;51004;54.692;9.332;2022-12-18T13:15:18;10.70;;;7.65;;
64597;SDS011;51004;54.692;9.332;2022-12-18T13:17:46;14.85;;;10.02;;
64597;SDS011;51004;54.692;9.332;2022-12-18T13:20:12;16.67;;;10.00;;
64597;SDS011;51004;54.692;9.332;2022-12-18T13:25:26;13.35;;;8.63;;
64597;SDS011;51004;54.692;9.332;2022-12-18T13:27:56;14.30;;;8.40;;
64597;SDS011;51004;54.692;9.332;2022-12-18T13:38:21;15.68;;;9.60;;
64597;SDS011;51004;54.692;9.332;2022-12-18T13:45:47;12.30;;;8.52;;
64597;SDS011;51004;54.692;9.332;2022-12-18T13:48:20;12.45;;;8.80;;
64597;SDS011;51004;54.692;9.332;2022-12-18T13:50:51;14.90;;;9.82;;
64597;SDS011;51004;54.692;9.332;2022-12-18T13:53:23;14.25;;;9.05;;
64597;SDS011;51004;54.692;9.332;2022-12-18T13:55:50;12.20;;;8.90;;
64597;SDS011;51004;54.692;9.332;2022-12-18T13:58:16;16.60;;;9.75;;
64597;SDS011;51004;54.692;9.332;2022-12-18T14:00:42;13.15;;;8.57;;
64597;SDS011;51004;54.692;9.332;2022-12-18T14:03:16;14.90;;;9.85;;
64597;SDS011;51004;54.692;9.332;2022-12-18T14:05:43;15.27;;;8.82;;
64597;SDS011;51004;54.692;9.332;2022-12-18T14:08:12;13.60;;;8.43;;
64597;SDS011;51004;54.692;9.332;2022-12-18T14:10:40;13.52;;;7.60;;
64597;SDS011;51004;54.692;9.332;2022-12-18T14:13:06;11.20;;;8.10;;
64597;SDS011;51004;54.692;9.332;2022-12-18T14:15:41;13.90;;;9.70;;
64597;SDS011;51004;54.692;9.332;2022-12-18T14:18:23;12.02;;;9.00;;
64597;SDS011;51004;54.692;9.332;2022-12-18T14:20:50;12.57;;;8.65;;
64597;SDS011;51004;54.692;9.332;2022-12-18T14:23:33;11.70;;;8.65;;
64597;SDS011;51004;54.692;9.332;2022-12-18T14:26:00;12.50;;;8.55;;
64597;SDS011;51004;54.692;9.332;2022-12-18T14:28:26;12.60;;;9.55;;
64597;SDS011;51004;54.692;9.332;2022-12-18T14:30:52;13.07;;;8.68;;
64597;SDS011;51004;54.692;9.332;2022-12-18T14:33:26;14.10;;;8.60;;
64597;SDS011;51004;54.692;9.332;2022-12-18T14:38:28;11.98;;;8.35;;
64597;SDS011;51004;54.692;9.332;2022-12-18T14:41:00;12.85;;;9.55;;
64597;SDS011;51004;54.692;9.332;2022-12-18T14:43:27;13.20;;;8.93;;
64597;SDS011;51004;54.692;9.332;2022-12-18T14:45:53;11.90;;;8.55;;
64597;SDS011;51004;54.692;9.332;2022-12-18T14:48:21;16.38;;;9.32;;
64597;SDS011;51004;54.692;9.332;2022-12-18T14:51:21;12.52;;;8.93;;
64597;SDS011;51004;54.692;9.332;2022-12-18T14:53:42;15.27;;;9.48;;
64597;SDS011;51004;54.692;9.332;2022-12-18T14:58:44;13.73;;;9.50;;
64597;SDS011;51004;54.692;9.332;2022-12-18T15:01:17;14.48;;;9.30;;
64597;SDS011;51004;54.692;9.332;2022-12-18T15:03:43;12.55;;;9.32;;
64597;SDS011;51004;54.692;9.332;2022-12-18T15:06:16;13.23;;;9.35;;
64597;SDS011;51004;54.692;9.332;2022-12-18T15:08:42;13.18;;;8.18;;
64597;SDS011;51004;54.692;9.332;2022-12-18T15:13:53;13.23;;;9.20;;
64597;SDS011;51004;54.692;9.332;2022-12-18T15:16:19;14.48;;;8.55;;
64597;SDS011;51004;54.692;9.332;2022-12-18T15:18:45;12.85;;;9.43;;
64597;SDS011;51004;54.692;9.332;2022-12-18T15:21:15;16.27;;;10.07;;
64597;SDS011;51004;54.692;9.332;2022-12-18T15:23:49;13.30;;;9.30;;
64597;SDS011;51004;54.692;9.332;2022-12-18T15:26:16;14.32;;;9.45;;
64597;SDS011;51004;54.692;9.332;2022-12-18T15:33:41;13.95;;;9.48;;
64597;SDS011;51004;54.692;9.332;2022-12-18T15:36:10;16.30;;;10.52;;
64597;SDS011;51004;54.692;9.332;2022-12-18T15:38:36;11.80;;;8.75;;
64597;SDS011;51004;54.692;9.332;2022-12-18T15:41:02;21.10;;;12.65;;
64597;SDS011;51004;54.692;9.332;2022-12-18T15:43:31;15.05;;;9.10;;
64597;SDS011;51004;54.692;9.332;2022-12-18T15:46:02;12.00;;;8.60;;
64597;SDS011;51004;54.692;9.332;2022-12-18T15:48:28;15.73;;;10.07;;
64597;SDS011;51004;54.692;9.332;2022-12-18T15:50:55;17.17;;;10.60;;
64597;SDS011;51004;54.692;9.332;2022-12-18T15:53:22;13.20;;;9.20;;
64597;SDS011;51004;54.692;9.332;2022-12-18T15:55:49;15.25;;;10.48;;
64597;SDS011;51004;54.692;9.332;2022-12-18T15:58:34;16.08;;;10.55;;
64597;SDS011;51004;54.692;9.332;2022-12-18T16:01:00;14.93;;;10.18;;
64597;SDS011;51004;54.692;9.332;2022-12-18T16:03:27;14.50;;;8.82;;
64597;SDS011;51004;54.692;9.332;2022-12-18T16:05:53;15.70;;;9.75;;
64597;SDS011;51004;54.692;9.332;2022-12-18T16:08:19;15.38;;;9.45;;
64597;SDS011;51004;54.692;9.332;2022-12-18T16:10:45;14.68;;;10.02;;
64597;SDS011;51004;54.692;9.332;2022-12-18T16:13:11;14.15;;;9.10;;
64597;SDS011;51004;54.692;9.332;2022-12-18T16:15:38;16.92;;;9.38;;
64597;SDS011;51004;54.692;9.332;2022-12-18T16:18:04;13.25;;;8.63;;
64597;SDS011;51004;54.692;9.332;2022-12-18T16:20:30;11.43;;;8.10;;